sensor_id;sensor_type;location;lat;lon;timestamp;P1;durP1;ratioP1;P2;durP2;ratioP2
42194;SDS011;27863;49.440;11.102;2022-12-01T00:00:09;15.57;;;11.10;;
42194;SDS011;27863;49.440;11.102;2022-12-01T00:03:11;11.90;;;10.63;;
42194;SDS011;27863;49.440;11.102;2022-12-01T00:06:13;12.90;;;11.57;;
42194;SDS011;27863;49.440;11.102;2022-12-01T00:09:15;14.97;;;12.53;;
42194;SDS011;27863;49.440;11.102;2022-12-01T00:12:34;14.47;;;11.80;;
42194;SDS011;27863;49.440;11.102;2022-12-01T00:15:35;12.90;;;11.60;;
42194;SDS011;27863;49.440;11.102;2022-12-01T00:18:36;15.30;;;11.63;;
42194;SDS011;27863;49.440;11.102;2022-12-01T00:21:36;13.37;;;11.90;;
42194;SDS011;27863;49.440;11.102;2022-12-01T00:24:37;12.17;;;10.93;;
42194;SDS011;27863;49.440;11.102;2022-12-01T00:27:38;12.10;;;10.90;;
42194;SDS011;27863;49.440;11.102;2022-12-01T00:30:39;14.00;;;11.27;;
42194;SDS011;27863;49.440;11.102;2022-12-01T00:33:39;14.73;;;10.47;;
42194;SDS011;27863;49.440;11.102;2022-12-01T00:36:39;16.67;;;12.17;;
42194;SDS011;27863;49.440;11.102;2022-12-01T00:39:40;14.83;;;11.77;;
42194;SDS011;27863;49.440;11.102;2022-12-01T00:42:40;13.07;;;10.53;;
42194;SDS011;27863;49.440;11.102;2022-12-01T00:45:42;12.33;;;10.90;;
42194;SDS011;27863;49.440;11.102;2022-12-01T00:48:42;12.50;;;11.30;;
42194;SDS011;27863;49.440;11.102;2022-12-01T00:51:43;13.40;;;12.10;;
42194;SDS011;27863;49.440;11.102;2022-12-01T00:54:43;11.10;;;9.93;;
42194;SDS011;27863;49.440;11.102;2022-12-01T00:57:44;12.50;;;11.00;;
42194;SDS011;27863;49.440;11.102;2022-12-01T01:00:44;12.67;;;11.27;;
42194;SDS011;27863;49.440;11.102;2022-12-01T01:03:45;15.47;;;12.27;;
42194;SDS011;27863;49.440;11.102;2022-12-01T01:06:46;12.73;;;11.43;;
42194;SDS011;27863;49.440;11.102;2022-12-01T01:09:46;13.63;;;10.80;;
42194;SDS011;27863;49.440;11.102;2022-12-01T01:12:47;13.87;;;11.97;;
42194;SDS011;27863;49.440;11.102;2022-12-01T01:15:55;13.10;;;11.73;;
42194;SDS011;27863;49.440;11.102;2022-12-01T01:18:59;11.37;;;10.27;;
42194;SDS011;27863;49.440;11.102;2022-12-01T01:21:59;14.20;;;11.90;;
42194;SDS011;27863;49.440;11.102;2022-12-01T01:25:00;12.83;;;11.10;;
42194;SDS011;27863;49.440;11.102;2022-12-01T01:28:00;12.10;;;10.90;;
42194;SDS011;27863;49.440;11.102;2022-12-01T01:31:07;13.03;;;11.73;;
42194;SDS011;27863;49.440;11.102;2022-12-01T01:34:09;12.93;;;11.23;;
42194;SDS011;27863;49.440;11.102;2022-12-01T01:37:09;13.53;;;11.67;;
42194;SDS011;27863;49.440;11.102;2022-12-01T01:40:10;11.17;;;9.87;;
42194;SDS011;27863;49.440;11.102;2022-12-01T01:43:56;13.73;;;11.33;;
42194;SDS011;27863;49.440;11.102;2022-12-01T01:46:37;10.90;;;9.80;;
42194;SDS011;27863;49.440;11.102;2022-12-01T01:49:38;11.37;;;9.90;;
42194;SDS011;27863;49.440;11.102;2022-12-01T01:52:41;12.23;;;11.00;;
42194;SDS011;27863;49.440;11.102;2022-12-01T01:55:48;13.03;;;10.17;;
42194;SDS011;27863;49.440;11.102;2022-12-01T01:58:49;12.57;;;10.20;;
42194;SDS011;27863;49.440;11.102;2022-12-01T02:01:54;12.37;;;10.03;;
42194;SDS011;27863;49.440;11.102;2022-12-01T02:04:59;13.40;;;11.13;;
42194;SDS011;27863;49.440;11.102;2022-12-01T02:08:01;17.50;;;10.30;;
42194;SDS011;27863;49.440;11.102;2022-12-01T02:14:16;14.17;;;12.10;;
42194;SDS011;27863;49.440;11.102;2022-12-01T02:17:30;12.77;;;11.07;;
42194;SDS011;27863;49.440;11.102;2022-12-01T02:24:47;11.63;;;10.43;;
42194;SDS011;27863;49.440;11.102;2022-12-01T02:31:22;12.63;;;11.43;;
42194;SDS011;27863;49.440;11.102;2022-12-01T02:41:32;11.37;;;10.27;;
42194;SDS011;27863;49.440;11.102;2022-12-01T02:44:40;11.70;;;10.57;;
42194;SDS011;27863;49.440;11.102;2022-12-01T02:47:42;13.87;;;10.90;;
42194;SDS011;27863;49.440;11.102;2022-12-01T02:50:44;13.97;;;10.93;;
42194;SDS011;27863;49.440;11.102;2022-12-01T02:53:45;12.47;;;11.10;;
42194;SDS011;27863;49.440;11.102;2022-12-01T02:56:46;14.17;;;11.00;;
42194;SDS011;27863;49.440;11.102;2022-12-01T02:59:52;15.97;;;13.10;;
42194;SDS011;27863;49.440;11.102;2022-12-01T03:03:00;13.10;;;10.83;;
42194;SDS011;27863;49.440;11.102;2022-12-01T03:10:28;15.00;;;11.43;;
42194;SDS011;27863;49.440;11.102;2022-12-01T03:13:41;14.37;;;11.40;;
42194;SDS011;27863;49.440;11.102;2022-12-01T03:16:50;16.60;;;10.73;;
42194;SDS011;27863;49.440;11.102;2022-12-01T03:19:55;11.97;;;10.57;;
42194;SDS011;27863;49.440;11.102;2022-12-01T03:23:11;17.77;;;12.17;;
42194;SDS011;27863;49.440;11.102;2022-12-01T03:26:15;13.80;;;11.37;;
42194;SDS011;27863;49.440;11.102;2022-12-01T03:29:17;12.80;;;11.43;;
42194;SDS011;27863;49.440;11.102;2022-12-01T03:32:24;14.77;;;11.50;;
42194;SDS011;27863;49.440;11.102;2022-12-01T03:35:29;12.97;;;11.53;;
42194;SDS011;27863;49.440;11.102;2022-12-01T03:38:43;15.03;;;11.90;;
42194;SDS011;27863;49.440;11.102;2022-12-01T03:41:47;13.03;;;11.70;;
42194;SDS011;27863;49.440;11.102;2022-12-01T03:44:53;11.93;;;9.90;;
42194;SDS011;27863;49.440;11.102;2022-12-01T03:47:56;13.73;;;12.27;;
42194;SDS011;27863;49.440;11.102;2022-12-01T03:51:12;12.33;;;10.57;;
42194;SDS011;27863;49.440;11.102;2022-12-01T03:54:27;12.60;;;10.77;;
42194;SDS011;27863;49.440;11.102;2022-12-01T03:57:55;11.50;;;10.30;;
42194;SDS011;27863;49.440;11.102;2022-12-01T04:01:01;12.17;;;10.97;;
42194;SDS011;27863;49.440;11.102;2022-12-01T04:04:06;15.47;;;10.90;;
42194;SDS011;27863;49.440;11.102;2022-12-01T04:07:11;16.33;;;11.73;;
42194;SDS011;27863;49.440;11.102;2022-12-01T04:10:12;12.93;;;11.63;;
42194;SDS011;27863;49.440;11.102;2022-12-01T04:13:13;13.90;;;12.00;;
42194;SDS011;27863;49.440;11.102;2022-12-01T04:16:23;13.23;;;11.67;;
42194;SDS011;27863;49.440;11.102;2022-12-01T04:19:24;13.53;;;11.33;;
42194;SDS011;27863;49.440;11.102;2022-12-01T04:22:24;13.67;;;11.83;;
42194;SDS011;27863;49.440;11.102;2022-12-01T04:25:25;12.37;;;11.17;;
42194;SDS011;27863;49.440;11.102;2022-12-01T04:28:26;14.40;;;11.80;;
42194;SDS011;27863;49.440;11.102;2022-12-01T04:31:26;17.80;;;11.67;;
42194;SDS011;27863;49.440;11.102;2022-12-01T04:34:27;14.40;;;12.73;;
42194;SDS011;27863;49.440;11.102;2022-12-01T04:37:28;12.77;;;10.87;;
42194;SDS011;27863;49.440;11.102;2022-12-01T04:40:28;13.27;;;11.50;;
42194;SDS011;27863;49.440;11.102;2022-12-01T04:43:29;11.90;;;10.70;;
42194;SDS011;27863;49.440;11.102;2022-12-01T04:46:29;13.10;;;11.70;;
42194;SDS011;27863;49.440;11.102;2022-12-01T04:49:30;13.90;;;11.97;;
42194;SDS011;27863;49.440;11.102;2022-12-01T04:52:30;12.13;;;10.87;;
42194;SDS011;27863;49.440;11.102;2022-12-01T04:55:35;13.40;;;12.10;;
42194;SDS011;27863;49.440;11.102;2022-12-01T04:58:37;14.80;;;11.67;;
42194;SDS011;27863;49.440;11.102;2022-12-01T05:01:38;14.00;;;11.57;;
42194;SDS011;27863;49.440;11.102;2022-12-01T05:04:38;13.37;;;10.93;;
42194;SDS011;27863;49.440;11.102;2022-12-01T05:07:40;13.77;;;11.77;;
42194;SDS011;27863;49.440;11.102;2022-12-01T05:10:41;12.50;;;11.23;;
42194;SDS011;27863;49.440;11.102;2022-12-01T05:13:42;13.53;;;12.13;;
42194;SDS011;27863;49.440;11.102;2022-12-01T05:16:44;13.83;;;11.50;;
42194;SDS011;27863;49.440;11.102;2022-12-01T05:19:45;18.30;;;11.93;;
42194;SDS011;27863;49.440;11.102;2022-12-01T05:23:21;13.07;;;11.63;;
42194;SDS011;27863;49.440;11.102;2022-12-01T05:26:22;14.27;;;12.83;;
42194;SDS011;27863;49.440;11.102;2022-12-01T05:29:22;13.33;;;11.93;;
42194;SDS011;27863;49.440;11.102;2022-12-01T05:32:22;12.37;;;11.13;;
42194;SDS011;27863;49.440;11.102;2022-12-01T05:35:23;17.60;;;12.73;;
42194;SDS011;27863;49.440;11.102;2022-12-01T05:38:23;15.17;;;11.90;;
42194;SDS011;27863;49.440;11.102;2022-12-01T05:41:24;14.43;;;12.00;;
42194;SDS011;27863;49.440;11.102;2022-12-01T05:44:24;13.33;;;11.77;;
42194;SDS011;27863;49.440;11.102;2022-12-01T05:47:25;12.67;;;10.47;;
42194;SDS011;27863;49.440;11.102;2022-12-01T05:50:26;14.57;;;11.00;;
42194;SDS011;27863;49.440;11.102;2022-12-01T05:53:28;14.43;;;12.97;;
42194;SDS011;27863;49.440;11.102;2022-12-01T05:56:29;11.67;;;10.57;;
42194;SDS011;27863;49.440;11.102;2022-12-01T05:59:30;13.97;;;11.90;;
42194;SDS011;27863;49.440;11.102;2022-12-01T06:02:32;12.77;;;11.57;;
42194;SDS011;27863;49.440;11.102;2022-12-01T06:05:32;14.90;;;12.17;;
42194;SDS011;27863;49.440;11.102;2022-12-01T06:08:33;12.93;;;11.60;;
42194;SDS011;27863;49.440;11.102;2022-12-01T06:11:33;12.27;;;10.33;;
42194;SDS011;27863;49.440;11.102;2022-12-01T06:14:34;12.10;;;10.47;;
42194;SDS011;27863;49.440;11.102;2022-12-01T06:17:34;12.80;;;11.50;;
42194;SDS011;27863;49.440;11.102;2022-12-01T06:20:35;11.67;;;10.57;;
42194;SDS011;27863;49.440;11.102;2022-12-01T06:23:35;11.73;;;10.50;;
42194;SDS011;27863;49.440;11.102;2022-12-01T06:26:36;12.80;;;11.07;;
42194;SDS011;27863;49.440;11.102;2022-12-01T06:29:36;13.07;;;11.70;;
42194;SDS011;27863;49.440;11.102;2022-12-01T06:32:38;12.77;;;11.47;;
42194;SDS011;27863;49.440;11.102;2022-12-01T06:35:39;12.80;;;11.50;;
42194;SDS011;27863;49.440;11.102;2022-12-01T06:38:39;11.90;;;10.47;;
42194;SDS011;27863;49.440;11.102;2022-12-01T06:41:40;12.60;;;11.33;;
42194;SDS011;27863;49.440;11.102;2022-12-01T06:44:40;13.60;;;11.33;;
42194;SDS011;27863;49.440;11.102;2022-12-01T06:47:41;14.33;;;11.67;;
42194;SDS011;27863;49.440;11.102;2022-12-01T06:50:42;12.97;;;10.70;;
42194;SDS011;27863;49.440;11.102;2022-12-01T06:53:42;14.43;;;11.83;;
42194;SDS011;27863;49.440;11.102;2022-12-01T06:56:43;11.97;;;10.63;;
42194;SDS011;27863;49.440;11.102;2022-12-01T06:59:45;13.63;;;11.57;;
42194;SDS011;27863;49.440;11.102;2022-12-01T07:02:45;12.47;;;11.27;;
42194;SDS011;27863;49.440;11.102;2022-12-01T07:05:53;14.93;;;12.13;;
42194;SDS011;27863;49.440;11.102;2022-12-01T07:08:55;12.23;;;10.93;;
42194;SDS011;27863;49.440;11.102;2022-12-01T07:11:55;11.67;;;10.57;;
42194;SDS011;27863;49.440;11.102;2022-12-01T07:14:56;13.23;;;11.50;;
42194;SDS011;27863;49.440;11.102;2022-12-01T07:17:57;16.83;;;11.10;;
42194;SDS011;27863;49.440;11.102;2022-12-01T07:21:01;14.57;;;11.03;;
42194;SDS011;27863;49.440;11.102;2022-12-01T07:24:02;12.60;;;11.30;;
42194;SDS011;27863;49.440;11.102;2022-12-01T07:27:03;14.07;;;10.00;;
42194;SDS011;27863;49.440;11.102;2022-12-01T07:30:03;13.07;;;11.47;;
42194;SDS011;27863;49.440;11.102;2022-12-01T07:33:04;13.37;;;11.23;;
42194;SDS011;27863;49.440;11.102;2022-12-01T07:36:05;14.60;;;11.67;;
42194;SDS011;27863;49.440;11.102;2022-12-01T07:39:07;11.57;;;10.43;;
42194;SDS011;27863;49.440;11.102;2022-12-01T07:42:07;16.37;;;11.63;;
42194;SDS011;27863;49.440;11.102;2022-12-01T07:45:08;13.17;;;11.77;;
42194;SDS011;27863;49.440;11.102;2022-12-01T07:48:08;13.13;;;11.17;;
42194;SDS011;27863;49.440;11.102;2022-12-01T07:51:10;15.43;;;11.50;;
42194;SDS011;27863;49.440;11.102;2022-12-01T07:54:11;14.53;;;11.77;;
42194;SDS011;27863;49.440;11.102;2022-12-01T07:57:15;16.37;;;11.83;;
42194;SDS011;27863;49.440;11.102;2022-12-01T08:00:18;14.10;;;12.30;;
42194;SDS011;27863;49.440;11.102;2022-12-01T08:03:19;18.37;;;11.83;;
42194;SDS011;27863;49.440;11.102;2022-12-01T08:06:20;13.73;;;12.27;;
42194;SDS011;27863;49.440;11.102;2022-12-01T08:09:21;14.03;;;10.83;;
42194;SDS011;27863;49.440;11.102;2022-12-01T08:12:22;17.47;;;12.97;;
42194;SDS011;27863;49.440;11.102;2022-12-01T08:15:23;11.33;;;9.67;;
42194;SDS011;27863;49.440;11.102;2022-12-01T08:18:23;10.60;;;9.20;;
42194;SDS011;27863;49.440;11.102;2022-12-01T08:21:24;18.33;;;11.10;;
42194;SDS011;27863;49.440;11.102;2022-12-01T08:24:25;11.63;;;10.03;;
42194;SDS011;27863;49.440;11.102;2022-12-01T08:27:25;12.50;;;9.90;;
42194;SDS011;27863;49.440;11.102;2022-12-01T08:30:26;11.43;;;10.27;;
42194;SDS011;27863;49.440;11.102;2022-12-01T08:33:28;13.40;;;10.37;;
42194;SDS011;27863;49.440;11.102;2022-12-01T08:36:29;14.33;;;11.30;;
42194;SDS011;27863;49.440;11.102;2022-12-01T08:39:29;12.87;;;11.07;;
42194;SDS011;27863;49.440;11.102;2022-12-01T08:42:30;17.37;;;10.60;;
42194;SDS011;27863;49.440;11.102;2022-12-01T08:45:30;12.57;;;10.33;;
42194;SDS011;27863;49.440;11.102;2022-12-01T08:48:31;13.83;;;10.37;;
42194;SDS011;27863;49.440;11.102;2022-12-01T08:51:33;12.30;;;10.47;;
42194;SDS011;27863;49.440;11.102;2022-12-01T08:54:35;13.30;;;10.03;;
42194;SDS011;27863;49.440;11.102;2022-12-01T08:57:35;14.77;;;10.27;;
42194;SDS011;27863;49.440;11.102;2022-12-01T09:00:36;12.80;;;10.20;;
42194;SDS011;27863;49.440;11.102;2022-12-01T09:03:37;19.80;;;11.53;;
42194;SDS011;27863;49.440;11.102;2022-12-01T09:06:42;12.07;;;10.73;;
42194;SDS011;27863;49.440;11.102;2022-12-01T09:09:45;12.20;;;10.47;;
42194;SDS011;27863;49.440;11.102;2022-12-01T09:12:46;14.40;;;11.33;;
42194;SDS011;27863;49.440;11.102;2022-12-01T09:15:54;11.77;;;10.43;;
42194;SDS011;27863;49.440;11.102;2022-12-01T09:18:56;14.53;;;11.20;;
42194;SDS011;27863;49.440;11.102;2022-12-01T09:21:56;11.57;;;10.40;;
42194;SDS011;27863;49.440;11.102;2022-12-01T09:24:57;13.27;;;11.20;;
42194;SDS011;27863;49.440;11.102;2022-12-01T09:27:58;12.40;;;10.87;;
42194;SDS011;27863;49.440;11.102;2022-12-01T09:31:05;11.87;;;10.80;;
42194;SDS011;27863;49.440;11.102;2022-12-01T09:34:14;12.17;;;10.70;;
42194;SDS011;27863;49.440;11.102;2022-12-01T09:37:16;11.90;;;10.60;;
42194;SDS011;27863;49.440;11.102;2022-12-01T09:40:16;11.50;;;10.30;;
42194;SDS011;27863;49.440;11.102;2022-12-01T09:43:19;13.47;;;10.77;;
42194;SDS011;27863;49.440;11.102;2022-12-01T09:46:23;11.97;;;10.50;;
42194;SDS011;27863;49.440;11.102;2022-12-01T09:52:52;14.20;;;11.13;;
42194;SDS011;27863;49.440;11.102;2022-12-01T09:55:56;11.97;;;10.50;;
42194;SDS011;27863;49.440;11.102;2022-12-01T09:59:03;16.20;;;11.77;;
42194;SDS011;27863;49.440;11.102;2022-12-01T10:02:18;17.40;;;12.03;;
42194;SDS011;27863;49.440;11.102;2022-12-01T10:08:49;13.03;;;10.97;;
42194;SDS011;27863;49.440;11.102;2022-12-01T10:15:33;19.03;;;12.07;;
42194;SDS011;27863;49.440;11.102;2022-12-01T10:25:37;12.60;;;11.17;;
42194;SDS011;27863;49.440;11.102;2022-12-01T10:32:12;12.70;;;11.23;;
42194;SDS011;27863;49.440;11.102;2022-12-01T10:35:20;13.07;;;11.20;;
42194;SDS011;27863;49.440;11.102;2022-12-01T10:38:33;13.40;;;11.80;;
42194;SDS011;27863;49.440;11.102;2022-12-01T10:41:35;12.83;;;10.87;;
42194;SDS011;27863;49.440;11.102;2022-12-01T10:44:36;11.77;;;10.60;;
42194;SDS011;27863;49.440;11.102;2022-12-01T10:47:37;13.13;;;10.77;;
42194;SDS011;27863;49.440;11.102;2022-12-01T10:51:14;13.47;;;12.07;;
42194;SDS011;27863;49.440;11.102;2022-12-01T10:54:16;13.67;;;11.23;;
42194;SDS011;27863;49.440;11.102;2022-12-01T10:57:17;14.30;;;11.97;;
42194;SDS011;27863;49.440;11.102;2022-12-01T11:00:34;15.93;;;12.00;;
42194;SDS011;27863;49.440;11.102;2022-12-01T11:03:37;12.80;;;11.40;;
42194;SDS011;27863;49.440;11.102;2022-12-01T11:06:37;14.43;;;12.30;;
42194;SDS011;27863;49.440;11.102;2022-12-01T11:09:38;15.77;;;11.80;;
42194;SDS011;27863;49.440;11.102;2022-12-01T11:12:39;15.47;;;11.33;;
42194;SDS011;27863;49.440;11.102;2022-12-01T11:15:48;13.37;;;11.97;;
42194;SDS011;27863;49.440;11.102;2022-12-01T11:18:52;14.73;;;12.13;;
42194;SDS011;27863;49.440;11.102;2022-12-01T11:22:20;15.37;;;12.33;;
42194;SDS011;27863;49.440;11.102;2022-12-01T11:25:22;13.40;;;11.53;;
42194;SDS011;27863;49.440;11.102;2022-12-01T11:28:22;12.27;;;11.07;;
42194;SDS011;27863;49.440;11.102;2022-12-01T11:31:38;16.83;;;11.30;;
42194;SDS011;27863;49.440;11.102;2022-12-01T11:34:53;14.90;;;11.50;;
42194;SDS011;27863;49.440;11.102;2022-12-01T11:37:57;11.73;;;10.53;;
42194;SDS011;27863;49.440;11.102;2022-12-01T11:40:59;11.67;;;10.57;;
42194;SDS011;27863;49.440;11.102;2022-12-01T11:44:00;12.93;;;11.63;;
42194;SDS011;27863;49.440;11.102;2022-12-01T11:47:12;13.03;;;11.13;;
42194;SDS011;27863;49.440;11.102;2022-12-01T11:50:25;12.53;;;10.73;;
42194;SDS011;27863;49.440;11.102;2022-12-01T11:56:29;12.83;;;10.37;;
42194;SDS011;27863;49.440;11.102;2022-12-01T11:59:29;10.83;;;9.77;;
42194;SDS011;27863;49.440;11.102;2022-12-01T12:12:22;10.13;;;9.13;;
42194;SDS011;27863;49.440;11.102;2022-12-01T12:22:32;11.47;;;9.47;;
42194;SDS011;27863;49.440;11.102;2022-12-01T12:42:43;9.63;;;8.43;;
42194;SDS011;27863;49.440;11.102;2022-12-01T12:52:30;12.73;;;9.30;;
42194;SDS011;27863;49.440;11.102;2022-12-01T12:55:37;18.87;;;9.03;;
42194;SDS011;27863;49.440;11.102;2022-12-01T13:05:58;10.17;;;9.07;;
42194;SDS011;27863;49.440;11.102;2022-12-01T13:09:12;11.47;;;8.43;;
42194;SDS011;27863;49.440;11.102;2022-12-01T13:12:26;9.80;;;8.80;;
42194;SDS011;27863;49.440;11.102;2022-12-01T13:15:28;9.80;;;8.60;;
42194;SDS011;27863;49.440;11.102;2022-12-01T13:21:46;9.37;;;8.40;;
42194;SDS011;27863;49.440;11.102;2022-12-01T13:24:48;11.27;;;8.70;;
42194;SDS011;27863;49.440;11.102;2022-12-01T13:27:49;15.07;;;8.77;;
42194;SDS011;27863;49.440;11.102;2022-12-01T13:31:00;17.40;;;9.90;;
42194;SDS011;27863;49.440;11.102;2022-12-01T13:34:05;17.63;;;9.97;;
42194;SDS011;27863;49.440;11.102;2022-12-01T13:37:06;10.17;;;9.10;;
42194;SDS011;27863;49.440;11.102;2022-12-01T13:40:09;9.93;;;8.93;;
42194;SDS011;27863;49.440;11.102;2022-12-01T13:43:22;13.37;;;9.67;;
42194;SDS011;27863;49.440;11.102;2022-12-01T13:46:28;10.30;;;9.30;;
42194;SDS011;27863;49.440;11.102;2022-12-01T13:52:45;11.13;;;8.57;;
42194;SDS011;27863;49.440;11.102;2022-12-01T13:58:56;15.73;;;9.93;;
42194;SDS011;27863;49.440;11.102;2022-12-01T14:02:13;13.03;;;8.93;;
42194;SDS011;27863;49.440;11.102;2022-12-01T14:11:25;15.17;;;8.97;;
42194;SDS011;27863;49.440;11.102;2022-12-01T14:14:27;9.33;;;8.40;;
42194;SDS011;27863;49.440;11.102;2022-12-01T14:17:36;24.47;;;8.90;;
42194;SDS011;27863;49.440;11.102;2022-12-01T14:20:42;8.80;;;7.90;;
42194;SDS011;27863;49.440;11.102;2022-12-01T14:24:03;13.17;;;8.27;;
42194;SDS011;27863;49.440;11.102;2022-12-01T14:27:04;15.57;;;9.37;;
42194;SDS011;27863;49.440;11.102;2022-12-01T14:33:50;13.17;;;8.33;;
42194;SDS011;27863;49.440;11.102;2022-12-01T14:43:05;9.10;;;8.20;;
42194;SDS011;27863;49.440;11.102;2022-12-01T14:50:18;8.13;;;7.33;;
42194;SDS011;27863;49.440;11.102;2022-12-01T14:53:30;9.40;;;8.50;;
42194;SDS011;27863;49.440;11.102;2022-12-01T14:56:31;8.13;;;7.33;;
42194;SDS011;27863;49.440;11.102;2022-12-01T14:59:33;8.43;;;7.63;;
42194;SDS011;27863;49.440;11.102;2022-12-01T15:02:34;15.00;;;7.60;;
42194;SDS011;27863;49.440;11.102;2022-12-01T15:05:58;9.30;;;7.33;;
42194;SDS011;27863;49.440;11.102;2022-12-01T15:09:16;8.90;;;8.03;;
42194;SDS011;27863;49.440;11.102;2022-12-01T15:12:24;12.13;;;7.23;;
42194;SDS011;27863;49.440;11.102;2022-12-01T15:15:26;7.27;;;6.53;;
42194;SDS011;27863;49.440;11.102;2022-12-01T15:18:30;15.17;;;7.20;;
42194;SDS011;27863;49.440;11.102;2022-12-01T15:21:32;7.03;;;6.33;;
42194;SDS011;27863;49.440;11.102;2022-12-01T15:24:32;7.47;;;6.67;;
42194;SDS011;27863;49.440;11.102;2022-12-01T15:27:33;8.37;;;7.47;;
42194;SDS011;27863;49.440;11.102;2022-12-01T15:30:34;8.37;;;6.97;;
42194;SDS011;27863;49.440;11.102;2022-12-01T15:33:35;7.37;;;6.33;;
42194;SDS011;27863;49.440;11.102;2022-12-01T15:36:39;11.27;;;7.73;;
42194;SDS011;27863;49.440;11.102;2022-12-01T15:39:42;9.00;;;7.37;;
42194;SDS011;27863;49.440;11.102;2022-12-01T15:42:58;9.70;;;7.70;;
42194;SDS011;27863;49.440;11.102;2022-12-01T15:46:10;7.57;;;6.80;;
42194;SDS011;27863;49.440;11.102;2022-12-01T15:52:19;13.13;;;8.07;;
42194;SDS011;27863;49.440;11.102;2022-12-01T15:55:26;7.77;;;7.00;;
42194;SDS011;27863;49.440;11.102;2022-12-01T15:58:40;7.63;;;6.93;;
42194;SDS011;27863;49.440;11.102;2022-12-01T16:01:42;12.03;;;7.57;;
42194;SDS011;27863;49.440;11.102;2022-12-01T16:04:43;11.17;;;7.50;;
42194;SDS011;27863;49.440;11.102;2022-12-01T16:07:45;8.27;;;7.57;;
42194;SDS011;27863;49.440;11.102;2022-12-01T16:11:07;10.50;;;8.13;;
42194;SDS011;27863;49.440;11.102;2022-12-01T16:17:18;7.80;;;7.00;;
42194;SDS011;27863;49.440;11.102;2022-12-01T16:20:22;8.60;;;7.70;;
42194;SDS011;27863;49.440;11.102;2022-12-01T16:23:26;8.80;;;7.87;;
42194;SDS011;27863;49.440;11.102;2022-12-01T16:26:26;8.63;;;7.73;;
42194;SDS011;27863;49.440;11.102;2022-12-01T16:29:28;7.83;;;6.93;;
42194;SDS011;27863;49.440;11.102;2022-12-01T16:32:35;10.20;;;7.50;;
42194;SDS011;27863;49.440;11.102;2022-12-01T16:35:39;8.70;;;7.47;;
42194;SDS011;27863;49.440;11.102;2022-12-01T16:38:42;8.67;;;7.50;;
42194;SDS011;27863;49.440;11.102;2022-12-01T16:41:42;8.93;;;8.00;;
42194;SDS011;27863;49.440;11.102;2022-12-01T16:44:44;9.47;;;8.43;;
42194;SDS011;27863;49.440;11.102;2022-12-01T16:47:46;9.67;;;7.40;;
42194;SDS011;27863;49.440;11.102;2022-12-01T16:50:47;12.37;;;9.00;;
42194;SDS011;27863;49.440;11.102;2022-12-01T16:53:48;9.00;;;7.60;;
42194;SDS011;27863;49.440;11.102;2022-12-01T16:56:49;8.57;;;7.77;;
42194;SDS011;27863;49.440;11.102;2022-12-01T16:59:50;10.77;;;7.70;;
42194;SDS011;27863;49.440;11.102;2022-12-01T17:02:51;9.00;;;8.10;;
42194;SDS011;27863;49.440;11.102;2022-12-01T17:05:52;11.17;;;7.50;;
42194;SDS011;27863;49.440;11.102;2022-12-01T17:08:53;9.87;;;7.27;;
42194;SDS011;27863;49.440;11.102;2022-12-01T17:11:54;11.43;;;8.80;;
42194;SDS011;27863;49.440;11.102;2022-12-01T17:14:56;9.30;;;8.37;;
42194;SDS011;27863;49.440;11.102;2022-12-01T17:17:56;10.57;;;9.37;;
42194;SDS011;27863;49.440;11.102;2022-12-01T17:21:01;8.83;;;8.00;;
42194;SDS011;27863;49.440;11.102;2022-12-01T17:24:04;9.37;;;7.90;;
42194;SDS011;27863;49.440;11.102;2022-12-01T17:27:06;9.60;;;8.57;;
42194;SDS011;27863;49.440;11.102;2022-12-01T17:30:07;14.47;;;9.37;;
42194;SDS011;27863;49.440;11.102;2022-12-01T17:33:08;12.23;;;10.20;;
42194;SDS011;27863;49.440;11.102;2022-12-01T17:36:10;11.07;;;9.53;;
42194;SDS011;27863;49.440;11.102;2022-12-01T17:39:11;10.00;;;9.00;;
42194;SDS011;27863;49.440;11.102;2022-12-01T17:42:12;14.30;;;10.27;;
42194;SDS011;27863;49.440;11.102;2022-12-01T17:45:13;10.90;;;9.80;;
42194;SDS011;27863;49.440;11.102;2022-12-01T17:48:13;10.00;;;9.00;;
42194;SDS011;27863;49.440;11.102;2022-12-01T17:51:14;9.40;;;8.30;;
42194;SDS011;27863;49.440;11.102;2022-12-01T17:54:14;12.33;;;9.83;;
42194;SDS011;27863;49.440;11.102;2022-12-01T17:57:15;10.13;;;8.80;;
42194;SDS011;27863;49.440;11.102;2022-12-01T18:00:16;8.67;;;7.80;;
42194;SDS011;27863;49.440;11.102;2022-12-01T18:03:19;10.07;;;9.07;;
42194;SDS011;27863;49.440;11.102;2022-12-01T18:06:22;11.13;;;9.90;;
42194;SDS011;27863;49.440;11.102;2022-12-01T18:09:24;10.50;;;8.97;;
42194;SDS011;27863;49.440;11.102;2022-12-01T18:12:25;8.60;;;7.77;;
42194;SDS011;27863;49.440;11.102;2022-12-01T18:15:26;9.40;;;8.40;;
42194;SDS011;27863;49.440;11.102;2022-12-01T18:18:27;8.93;;;7.83;;
42194;SDS011;27863;49.440;11.102;2022-12-01T18:21:28;13.83;;;9.03;;
42194;SDS011;27863;49.440;11.102;2022-12-01T18:24:29;8.53;;;7.77;;
42194;SDS011;27863;49.440;11.102;2022-12-01T18:27:29;8.93;;;7.37;;
42194;SDS011;27863;49.440;11.102;2022-12-01T18:30:31;8.03;;;7.23;;
42194;SDS011;27863;49.440;11.102;2022-12-01T18:33:33;8.10;;;7.23;;
42194;SDS011;27863;49.440;11.102;2022-12-01T18:36:36;9.40;;;7.70;;
42194;SDS011;27863;49.440;11.102;2022-12-01T18:39:37;9.10;;;7.63;;
42194;SDS011;27863;49.440;11.102;2022-12-01T18:42:38;9.03;;;8.00;;
42194;SDS011;27863;49.440;11.102;2022-12-01T18:45:39;8.17;;;7.33;;
42194;SDS011;27863;49.440;11.102;2022-12-01T18:48:43;7.97;;;6.90;;
42194;SDS011;27863;49.440;11.102;2022-12-01T18:51:45;8.33;;;7.50;;
42194;SDS011;27863;49.440;11.102;2022-12-01T18:54:46;11.30;;;8.80;;
42194;SDS011;27863;49.440;11.102;2022-12-01T18:57:47;10.33;;;8.93;;
42194;SDS011;27863;49.440;11.102;2022-12-01T19:00:48;9.63;;;8.67;;
42194;SDS011;27863;49.440;11.102;2022-12-01T19:03:49;9.47;;;8.53;;
42194;SDS011;27863;49.440;11.102;2022-12-01T19:06:49;10.80;;;8.80;;
42194;SDS011;27863;49.440;11.102;2022-12-01T19:09:50;13.77;;;8.97;;
42194;SDS011;27863;49.440;11.102;2022-12-01T19:12:51;8.93;;;7.97;;
42194;SDS011;27863;49.440;11.102;2022-12-01T19:15:52;9.43;;;8.47;;
42194;SDS011;27863;49.440;11.102;2022-12-01T19:18:52;9.93;;;8.90;;
42194;SDS011;27863;49.440;11.102;2022-12-01T19:21:53;10.63;;;8.57;;
42194;SDS011;27863;49.440;11.102;2022-12-01T19:24:55;10.93;;;7.93;;
42194;SDS011;27863;49.440;11.102;2022-12-01T19:27:56;8.47;;;7.50;;
42194;SDS011;27863;49.440;11.102;2022-12-01T19:30:57;9.97;;;7.83;;
42194;SDS011;27863;49.440;11.102;2022-12-01T19:33:59;12.50;;;8.13;;
42194;SDS011;27863;49.440;11.102;2022-12-01T19:36:59;10.20;;;8.13;;
42194;SDS011;27863;49.440;11.102;2022-12-01T19:40:00;9.00;;;8.10;;
42194;SDS011;27863;49.440;11.102;2022-12-01T19:43:01;10.13;;;9.10;;
42194;SDS011;27863;49.440;11.102;2022-12-01T19:46:03;8.83;;;7.87;;
42194;SDS011;27863;49.440;11.102;2022-12-01T19:49:08;15.53;;;8.97;;
42194;SDS011;27863;49.440;11.102;2022-12-01T19:52:10;11.00;;;8.77;;
42194;SDS011;27863;49.440;11.102;2022-12-01T19:55:11;9.13;;;8.20;;